Time;durP1;ratioP1;P1;durP2;ratioP2;P2;SDS_P1;SDS_P2;PMS_P1;PMS_P2;Temp;Humidity;BMP_temperature;BMP_pressure;BME280_temperature;BME280_humidity;BME280_pressure;Samples;Min_cycle;Max_cycle;Signal;HPM_P1;HPM_P2
2023/08/12 00:01:29;;;;;;;9.13;2.42;;;;;;;19.95;100.00;101669.28;10499743;28;20029;-72
2023/08/12 00:06:30;;;;;;;9.52;4.10;;;;;;;20.09;100.00;101670.69;10505327;28;20360;-72
2023/08/12 00:11:30;;;;;;;2.78;2.58;;;;;;;20.17;100.00;101664.00;10504744;28;20063;-72
2023/08/12 00:16:32;;;;;;;5.45;3.08;;;;;;;20.15;100.00;101660.63;10505275;28;20135;-71
2023/08/12 00:21:32;;;;;;;2.78;2.58;;;;;;;20.05;100.00;101650.25;10504548;28;20045;-72
2023/08/12 00:26:33;;;;;;;7.40;2.65;;;;;;;19.94;100.00;101640.97;10504295;28;20391;-72
2023/08/12 00:31:33;;;;;;;6.80;2.80;;;;;;;19.85;100.00;101634.16;10504316;28;20464;-72
2023/08/12 00:36:34;;;;;;;3.75;2.10;;;;;;;19.89;100.00;101631.75;10504388;28;20040;-71
2023/08/12 00:41:34;;;;;;;5.68;3.50;;;;;;;19.89;100.00;101626.28;10504411;28;20068;-71
2023/08/12 00:46:35;;;;;;;3.38;2.92;;;;;;;19.90;100.00;101619.69;10503824;28;20064;-71
2023/08/12 00:51:35;;;;;;;3.30;2.65;;;;;;;19.88;100.00;101630.09;10502220;28;20136;-72
2023/08/12 00:56:36;;;;;;;2.85;2.25;;;;;;;19.88;100.00;101617.19;10502818;28;20426;-72
2023/08/12 01:01:39;;;;;;;8.00;2.92;;;;;;;19.85;100.00;101616.84;10518774;28;20419;-72
2023/08/12 01:06:39;;;;;;;5.43;2.22;;;;;;;19.86;100.00;101616.59;10501873;28;20048;-72
2023/08/12 01:11:57;;;;;;;6.15;3.17;;;;;;;19.94;100.00;101612.63;10504444;28;20131;-72
2023/08/12 01:17:00;;;;;;;4.60;3.00;;;;;;;19.98;100.00;101600.91;10500898;28;20452;-72
2023/08/12 01:22:01;;;;;;;12.38;4.10;;;;;;;19.97;100.00;101599.25;10501145;28;20116;-72
2023/08/12 01:27:02;;;;;;;5.20;2.65;;;;;;;19.91;100.00;101586.47;10501042;28;20032;-72
2023/08/12 01:32:24;;;;;;;13.75;3.40;;;;;;;19.89;100.00;101588.63;10501370;28;20472;-72
2023/08/12 01:37:26;;;;;;;5.97;3.03;;;;;;;19.92;100.00;101587.31;10502453;28;20503;-72
2023/08/12 01:42:27;;;;;;;4.32;3.53;;;;;;;19.93;100.00;101580.72;10499933;28;20047;-72
2023/08/12 01:47:28;;;;;;;5.88;3.55;;;;;;;20.06;100.00;101585.94;10483811;28;20448;-71
2023/08/12 01:52:29;;;;;;;6.75;3.40;;;;;;;20.13;100.00;101575.66;10500487;28;20036;-72
2023/08/12 01:57:29;;;;;;;7.57;4.10;;;;;;;20.17;100.00;101568.56;10502046;28;20032;-72
2023/08/12 02:02:29;;;;;;;7.15;4.35;;;;;;;20.14;100.00;101558.06;10500611;28;20036;-72
2023/08/12 02:07:30;;;;;;;9.95;4.38;;;;;;;20.18;100.00;101558.41;10500494;28;20094;-72
2023/08/12 02:12:30;;;;;;;4.80;3.70;;;;;;;20.05;100.00;101551.28;10499771;28;20028;-72
2023/08/12 02:17:30;;;;;;;10.40;3.97;;;;;;;20.00;100.00;101553.91;10500113;28;20036;-72
2023/08/12 02:22:31;;;;;;;7.40;4.22;;;;;;;19.98;100.00;101550.59;10499858;28;20028;-72
2023/08/12 02:27:31;;;;;;;15.45;4.50;;;;;;;19.94;100.00;101554.88;10497074;28;20627;-71
2023/08/12 02:32:32;;;;;;;7.80;4.05;;;;;;;19.93;100.00;101548.56;10500530;28;20063;-71
2023/08/12 02:37:32;;;;;;;4.78;3.78;;;;;;;19.93;100.00;101543.06;10499926;28;20033;-71
2023/08/12 02:42:32;;;;;;;4.00;3.58;;;;;;;19.93;100.00;101531.22;10498450;28;20029;-71
2023/08/12 02:47:33;;;;;;;5.05;4.03;;;;;;;19.92;100.00;101524.91;10498469;28;20067;-71
2023/08/12 02:52:33;;;;;;;8.27;5.43;;;;;;;19.93;100.00;101526.56;10498360;28;20044;-71
2023/08/12 02:57:33;;;;;;;6.68;5.32;;;;;;;19.96;100.00;101519.75;10498678;28;20441;-72
2023/08/12 03:02:34;;;;;;;9.05;5.05;;;;;;;19.97;100.00;101515.91;10498653;28;20029;-71
2023/08/12 03:07:34;;;;;;;7.38;5.60;;;;;;;20.00;100.00;101504.44;10498276;28;20078;-72
2023/08/12 03:12:35;;;;;;;8.43;4.97;;;;;;;19.94;100.00;101502.66;10497411;28;20452;-72
2023/08/12 03:17:35;;;;;;;10.20;5.68;;;;;;;19.96;100.00;101495.00;10497974;28;20047;-72
2023/08/12 03:22:37;;;;;;;6.18;5.30;;;;;;;19.85;100.00;101487.66;10496534;28;20051;-72
2023/08/12 03:27:37;;;;;;;8.07;5.65;;;;;;;19.77;100.00;101488.88;10496664;28;20031;-71
2023/08/12 03:32:37;;;;;;;19.63;6.72;;;;;;;19.82;100.00;101478.00;10497454;28;20040;-71
2023/08/12 03:37:38;;;;;;;8.32;5.13;;;;;;;19.90;100.00;101480.31;10497779;28;20036;-71
2023/08/12 03:42:38;;;;;;;13.68;5.45;;;;;;;19.95;100.00;101474.94;10496903;28;20089;-71
2023/08/12 03:47:38;;;;;;;6.15;4.90;;;;;;;19.99;100.00;101475.28;10495416;28;20059;-71
2023/08/12 03:52:39;;;;;;;6.25;5.75;;;;;;;19.97;100.00;101463.69;10497781;28;20394;-71
2023/08/12 03:57:39;;;;;;;18.40;5.43;;;;;;;19.92;100.00;101438.88;10496609;28;20036;-71
2023/08/12 04:02:40;;;;;;;7.53;6.32;;;;;;;19.89;100.00;101437.44;10497092;28;20411;-72
2023/08/12 04:07:40;;;;;;;7.22;6.55;;;;;;;19.87;100.00;101436.00;10497237;28;20120;-72
2023/08/12 04:12:43;;;;;;;10.68;7.05;;;;;;;19.92;100.00;101433.38;10496345;28;20491;-72
2023/08/12 04:17:44;;;;;;;11.15;6.53;;;;;;;19.98;100.00;101424.97;10495619;28;20460;-71
2023/08/12 04:22:44;;;;;;;12.50;6.90;;;;;;;20.06;100.00;101431.97;10496319;28;20074;-72
2023/08/12 04:27:47;;;;;;;10.05;6.55;;;;;;;20.09;100.00;101417.72;10495909;28;20415;-72
2023/08/12 04:32:47;;;;;;;16.48;7.00;;;;;;;20.10;100.00;101416.66;10497059;28;20075;-72
2023/08/12 04:37:47;;;;;;;17.60;7.30;;;;;;;20.12;100.00;101419.13;10496328;28;20033;-72
2023/08/12 04:42:48;;;;;;;12.38;8.02;;;;;;;20.13;100.00;101412.56;10494874;28;20035;-72
2023/08/12 04:47:48;;;;;;;15.75;8.23;;;;;;;20.15;100.00;101413.97;10496018;28;20060;-72
2023/08/12 04:52:49;;;;;;;15.07;8.25;;;;;;;20.17;100.00;101400.81;10503932;28;20028;-72
2023/08/12 04:57:49;;;;;;;13.27;10.43;;;;;;;20.09;100.00;101395.72;10503274;28;20028;-71
2023/08/12 05:02:49;;;;;;;20.58;9.73;;;;;;;19.98;100.00;101386.47;10486011;28;20384;-70
2023/08/12 05:07:50;;;;;;;19.88;9.60;;;;;;;19.90;100.00;101394.28;10503227;28;20043;-71
2023/08/12 05:12:52;;;;;;;1.42;1.42;;;;;;;19.79;100.00;101403.44;10503619;28;20165;-71
2023/08/12 05:17:52;;;;;;;1.58;1.08;;;;;;;19.73;100.00;101405.25;10485408;28;20040;-71
2023/08/12 05:22:52;;;;;;;2.60;1.55;;;;;;;19.63;100.00;101405.88;10502789;28;20028;-71
2023/08/12 05:27:53;;;;;;;1.70;1.67;;;;;;;19.53;100.00;101408.41;10502465;28;20047;-72
2023/08/12 05:32:53;;;;;;;0.98;0.98;;;;;;;19.50;100.00;101412.50;10502361;28;20041;-72
2023/08/12 05:37:54;;;;;;;3.83;0.90;;;;;;;19.48;100.00;101406.41;10502267;28;20035;-72
2023/08/12 05:42:54;;;;;;;0.40;0.40;;;;;;;19.45;100.00;101406.88;10502863;28;20052;-72
2023/08/12 05:47:55;;;;;;;15.55;4.50;;;;;;;19.43;100.00;101410.94;10500083;28;20060;-72
2023/08/12 05:52:55;;;;;;;1.73;1.73;;;;;;;19.44;100.00;101401.66;10501013;28;20043;-72
2023/08/12 05:57:56;;;;;;;1.95;1.85;;;;;;;19.47;100.00;101404.72;10500887;28;20032;-72
2023/08/12 06:02:56;;;;;;;1.45;1.40;;;;;;;19.54;100.00;101401.84;10499885;28;20043;-72
2023/08/12 06:07:57;;;;;;;0.65;0.65;;;;;;;19.55;100.00;101395.25;10500528;28;20044;-73
2023/08/12 06:12:57;;;;;;;1.27;1.17;;;;;;;19.54;100.00;101404.59;10500308;28;20124;-73
2023/08/12 06:17:58;;;;;;;2.00;1.90;;;;;;;19.53;100.00;101405.69;10498399;28;20059;-73
2023/08/12 06:22:58;;;;;;;1.13;1.13;;;;;;;19.49;100.00;101410.78;10499646;28;20040;-73
2023/08/12 06:27:59;;;;;;;4.72;3.05;;;;;;;19.55;100.00;101399.94;10499448;28;20075;-72
2023/08/12 06:32:59;;;;;;;1.05;1.05;;;;;;;19.53;100.00;101394.69;10498644;28;20487;-73
2023/08/12 06:37:59;;;;;;;0.73;0.73;;;;;;;19.56;100.00;101388.69;10498037;28;20108;-73
2023/08/12 06:43:00;;;;;;;0.57;0.57;;;;;;;19.58;100.00;101396.69;10498668;28;20392;-73
2023/08/12 06:48:02;;;;;;;0.75;0.75;;;;;;;19.62;100.00;101398.72;10500067;28;20194;-73
2023/08/12 06:53:04;;;;;;;0.50;0.50;;;;;;;19.60;100.00;101425.59;10500102;28;20042;-74
2023/08/12 06:58:04;;;;;;;0.52;0.52;;;;;;;18.79;100.00;101436.50;10498966;28;20040;-75
2023/08/12 07:03:05;;;;;;;0.30;0.30;;;;;;;18.14;100.00;101431.03;10497338;28;20071;-75
2023/08/12 07:08:05;;;;;;;1.23;1.23;;;;;;;17.87;100.00;101453.38;10497389;28;20028;-75
2023/08/12 07:13:06;;;;;;;0.70;0.70;;;;;;;17.56;100.00;101450.81;10497302;28;20032;-75
2023/08/12 07:18:06;;;;;;;0.40;0.40;;;;;;;17.47;100.00;101438.50;10498518;28;20516;-75
2023/08/12 07:23:07;;;;;;;2.15;2.05;;;;;;;17.44;100.00;101432.41;10498062;28;20075;-75
2023/08/12 07:28:07;;;;;;;0.30;0.30;;;;;;;17.46;100.00;101426.72;10496667;28;20047;-74
2023/08/12 07:33:08;;;;;;;0.38;0.38;;;;;;;17.58;100.00;101416.66;10498202;28;20115;-75
2023/08/12 07:38:08;;;;;;;0.65;0.65;;;;;;;17.70;100.00;101433.13;10498030;28;20460;-74
2023/08/12 07:43:09;;;;;;;0.40;0.40;;;;;;;17.81;100.00;101440.59;10498561;28;20036;-74
2023/08/12 07:48:09;;;;;;;0.30;0.30;;;;;;;17.79;100.00;101445.47;10512721;28;20369;-73
2023/08/12 07:53:10;;;;;;;0.30;0.30;;;;;;;17.72;100.00;101457.56;10497216;28;20055;-76
2023/08/12 07:58:10;;;;;;;0.40;0.40;;;;;;;17.80;100.00;101446.28;10497103;28;20028;-75
2023/08/12 08:03:11;;;;;;;0.35;0.35;;;;;;;17.94;100.00;101447.78;10495319;28;20461;-74
2023/08/12 08:08:12;;;;;;;0.30;0.30;;;;;;;18.00;100.00;101433.16;10495570;28;20060;-74
2023/08/12 08:13:12;;;;;;;0.20;0.20;;;;;;;18.15;100.00;101449.13;10496728;28;20032;-74
2023/08/12 08:18:13;;;;;;;2.88;2.65;;;;;;;18.46;100.00;101455.41;10497118;28;20033;-75
2023/08/12 08:23:13;;;;;;;0.30;0.30;;;;;;;18.78;100.00;101464.19;10496449;28;20039;-75
2023/08/12 08:28:14;;;;;;;0.50;0.50;;;;;;;18.94;100.00;101457.97;10503966;28;20035;-74
2023/08/12 08:33:14;;;;;;;0.50;0.50;;;;;;;19.35;100.00;101458.03;10503694;28;20037;-74
2023/08/12 08:38:15;;;;;;;0.40;0.40;;;;;;;19.70;100.00;101434.06;10503410;28;20090;-74
2023/08/12 08:43:16;;;;;;;1.30;1.30;;;;;;;20.27;100.00;101429.59;10503865;28;20115;-75
2023/08/12 08:48:16;;;;;;;1.60;1.60;;;;;;;21.48;100.00;101432.47;10502272;28;20087;-75
2023/08/12 08:53:17;;;;;;;0.40;0.40;;;;;;;22.89;100.00;101432.38;10501608;28;20036;-75
2023/08/12 08:58:17;;;;;;;1.08;1.08;;;;;;;23.08;100.00;101435.56;10502131;28;20028;-74
2023/08/12 09:03:18;;;;;;;0.55;0.55;;;;;;;25.06;100.00;101432.22;10468556;28;20387;-73
2023/08/12 09:08:19;;;;;;;2.13;2.03;;;;;;;24.68;100.00;101449.50;10468557;28;20536;-73
2023/08/12 09:13:19;;;;;;;1.38;0.73;;;;;;;23.59;100.00;101466.19;10486496;28;20037;-74
2023/08/12 09:18:23;;;;;;;11.23;0.93;;;;;;;22.58;100.00;101454.25;10502021;28;20043;-74
2023/08/12 09:23:26;;;;;;;0.82;0.82;;;;;;;22.84;100.00;101477.34;10501063;28;20116;-75
2023/08/12 09:28:26;;;;;;;6.22;2.88;;;;;;;25.22;100.00;101474.63;10500908;28;20482;-76
2023/08/12 09:33:27;;;;;;;6.65;2.13;;;;;;;24.72;100.00;101475.50;10501432;28;20082;-76
2023/08/12 09:38:27;;;;;;;11.43;2.70;;;;;;;23.25;100.00;101480.41;10501299;28;20037;-76
2023/08/12 09:43:28;;;;;;;2.80;2.25;;;;;;;23.03;100.00;101493.53;10502004;28;20028;-76
2023/08/12 09:48:28;;;;;;;4.78;3.25;;;;;;;24.69;100.00;101487.16;10499588;28;20068;-75
2023/08/12 09:53:29;;;;;;;1.40;1.30;;;;;;;24.47;100.00;101495.72;10501247;28;20028;-74
2023/08/12 09:58:29;;;;;;;3.05;2.10;;;;;;;24.82;100.00;101495.75;10501630;28;20044;-74
2023/08/12 10:03:30;;;;;;;2.60;1.77;;;;;;;25.59;100.00;101490.00;10500453;28;20032;-74
2023/08/12 10:08:30;;;;;;;14.85;2.50;;;;;;;26.81;100.00;101493.13;10516756;28;20056;-74
2023/08/12 10:13:31;;;;;;;14.98;3.63;;;;;;;27.05;100.00;101507.84;10501820;28;20040;-67
2023/08/12 10:18:31;;;;;;;9.95;1.95;;;;;;;26.96;100.00;101504.06;10500029;28;20040;-66
2023/08/12 10:23:31;;;;;;;5.80;3.03;;;;;;;27.37;100.00;101500.88;10500841;28;20028;-67
2023/08/12 10:28:36;;;;;;;4.05;2.65;;;;;;;28.14;100.00;101488.72;10500774;28;20051;-68
2023/08/12 10:33:40;;;;;;;6.03;2.72;;;;;;;28.63;100.00;101484.63;10497665;28;20047;-67
2023/08/12 10:38:40;;;;;;;8.38;4.32;;;;;;;29.07;100.00;101480.50;10499807;28;20424;-67
2023/08/12 10:43:59;;;;;;;2.97;2.45;;;;;;;28.86;100.00;101480.84;10498715;28;20032;-67
2023/08/12 10:49:00;;;;;;;2.70;2.30;;;;;;;29.11;100.00;101484.34;10498858;28;20047;-67
2023/08/12 10:54:19;;;;;;;15.48;3.55;;;;;;;29.26;100.00;101488.78;10498655;28;20040;-67
2023/08/12 10:59:45;;;;;;;4.32;2.53;;;;;;;29.53;100.00;101483.19;10497509;28;20040;-67
2023/08/12 11:04:51;;;;;;;;;;;;;;;29.59;100.00;101476.38;10498595;28;20054;-75
2023/08/12 11:09:55;;;;;;;7.07;3.28;;;;;;;29.70;100.00;101468.59;10497548;28;19912;-76
2023/08/12 11:14:57;;;;;;;9.25;4.13;;;;;;;29.53;100.00;101476.78;10496892;28;20048;-76
2023/08/12 11:19:58;;;;;;;5.57;2.22;;;;;;;28.55;100.00;101488.94;10496865;28;20047;-75
2023/08/12 11:25:00;;;;;;;6.63;3.47;;;;;;;29.13;100.00;101485.69;10496690;28;20064;-79
2023/08/12 11:30:00;;;;;;;5.90;2.78;;;;;;;29.04;100.00;101492.28;10479575;28;20029;-77
2023/08/12 11:35:01;;;;;;;18.77;3.47;;;;;;;28.68;100.00;101487.31;10479265;28;20099;-78
2023/08/12 11:40:03;;;;;;;6.35;4.13;;;;;;;28.28;100.00;101484.88;10497471;28;20096;-78
2023/08/12 11:45:04;;;;;;;7.55;3.38;;;;;;;28.21;100.00;101489.19;10497160;28;20039;-77
2023/08/12 11:50:06;;;;;;;14.48;4.15;;;;;;;28.65;100.00;101487.94;10496281;28;20383;-77
2023/08/12 11:55:07;;;;;;;9.70;4.00;;;;;;;29.05;100.00;101485.56;10478987;28;20539;-78
2023/08/12 12:00:14;;;;;;;6.18;3.25;;;;;;;29.07;100.00;101491.66;10502696;28;20070;-76
2023/08/12 12:05:16;;;;;;;3.58;3.28;;;;;;;29.17;100.00;101494.25;10504541;28;20464;-75
2023/08/12 12:10:21;;;;;;;10.15;3.10;;;;;;;29.17;100.00;101505.41;10503652;28;20063;-78
2023/08/12 12:15:22;;;;;;;4.53;3.03;;;;;;;29.36;100.00;101500.56;10504931;28;20039;-77
2023/08/12 12:20:22;;;;;;;6.35;4.13;;;;;;;28.73;100.00;101507.56;10504281;28;20044;-77
2023/08/12 12:25:23;;;;;;;5.57;2.97;;;;;;;28.68;100.00;101516.00;10503197;28;20127;-77
2023/08/12 12:30:24;;;;;;;8.15;3.67;;;;;;;28.55;97.76;101518.75;10504071;28;20032;-77
2023/08/12 12:35:24;;;;;;;5.43;3.28;;;;;;;28.18;93.48;101523.22;10502591;28;20064;-76
2023/08/12 12:40:25;;;;;;;5.97;3.92;;;;;;;28.45;95.14;101528.09;10502733;28;20114;-76
2023/08/12 12:45:25;;;;;;;6.97;2.45;;;;;;;28.29;99.63;101531.09;10502584;28;20043;-76
2023/08/12 12:50:26;;;;;;;14.65;2.60;;;;;;;28.11;96.46;101539.44;10503585;28;20076;-76
2023/08/12 12:55:27;;;;;;;5.63;2.72;;;;;;;28.14;94.98;101544.41;10502282;28;20096;-76
2023/08/12 13:00:28;;;;;;;15.60;3.85;;;;;;;27.51;86.83;101543.56;10502855;28;20033;-76
2023/08/12 13:05:28;;;;;;;7.32;3.85;;;;;;;27.06;100.00;101540.13;10503142;28;20029;-77
2023/08/12 13:10:29;;;;;;;5.03;3.47;;;;;;;27.06;100.00;101536.50;10502151;28;20036;-76
2023/08/12 13:15:29;;;;;;;17.00;3.78;;;;;;;27.36;94.35;101541.75;10486053;28;20115;-76
2023/08/12 13:20:30;;;;;;;10.95;2.70;;;;;;;26.96;100.00;101539.38;10502315;28;20037;-76
2023/08/12 13:25:36;;;;;;;5.40;3.38;;;;;;;27.13;90.92;101531.44;10503221;28;20037;-75
2023/08/12 13:30:36;;;;;;;6.80;3.88;;;;;;;27.24;91.23;101538.56;10502898;28;20065;-76
2023/08/12 13:35:37;;;;;;;4.15;2.88;;;;;;;27.30;84.85;101544.91;10518532;28;20381;-76
2023/08/12 13:40:38;;;;;;;5.93;3.25;;;;;;;26.87;90.31;101539.19;10501956;28;20039;-76
2023/08/12 13:45:38;;;;;;;3.42;2.88;;;;;;;27.31;93.79;101538.19;10500198;28;20107;-76
2023/08/12 13:50:39;;;;;;;8.05;3.63;;;;;;;26.93;80.44;101532.47;10500536;28;20082;-76
2023/08/12 13:55:40;;;;;;;13.30;3.00;;;;;;;26.72;89.57;101534.59;10501349;28;20039;-76
2023/08/12 14:00:41;;;;;;;8.00;3.83;;;;;;;26.70;93.63;101539.59;10466773;28;20036;-76
2023/08/12 14:05:42;;;;;;;19.25;7.40;;;;;;;26.59;85.75;101533.31;10501301;28;20028;-76
2023/08/12 14:10:42;;;;;;;6.30;2.70;;;;;;;26.40;77.19;101529.53;10500800;28;20036;-76
2023/08/12 14:15:43;;;;;;;11.80;3.45;;;;;;;25.94;79.56;101532.56;10500584;28;20047;-76
2023/08/12 14:20:44;;;;;;;4.03;2.38;;;;;;;26.06;92.42;101532.25;10500677;28;20035;-75
2023/08/12 14:25:44;;;;;;;4.30;3.28;;;;;;;25.98;79.33;101530.91;10498313;28;20047;-76
2023/08/12 14:30:45;;;;;;;4.70;3.03;;;;;;;25.28;81.95;101536.41;10498641;28;20060;-75
2023/08/12 14:35:46;;;;;;;2.88;2.63;;;;;;;25.08;85.35;101539.19;10498512;28;20452;-74
2023/08/12 14:40:48;;;;;;;4.40;3.10;;;;;;;24.96;86.23;101522.88;10497577;28;20058;-74
2023/08/12 14:45:48;;;;;;;7.18;3.75;;;;;;;24.67;80.42;101531.75;10499870;28;20043;-75
2023/08/12 14:50:49;;;;;;;9.18;3.35;;;;;;;24.56;90.58;101533.66;10499374;28;20072;-75
2023/08/12 14:55:50;;;;;;;4.03;2.88;;;;;;;24.53;84.62;101539.75;10498884;28;20036;-75
2023/08/12 15:00:50;;;;;;;5.63;2.70;;;;;;;24.63;85.73;101532.56;10497876;28;20037;-74
2023/08/12 15:06:01;;;;;;;7.40;5.28;;;;;;;24.57;88.14;101523.44;10496729;28;20409;-75
2023/08/12 15:11:02;;;;;;;6.53;3.08;;;;;;;24.36;85.59;101526.16;10498547;28;20032;-74
2023/08/12 15:16:02;;;;;;;10.15;3.65;;;;;;;24.18;84.70;101526.66;10496631;28;20036;-75
2023/08/12 15:21:03;;;;;;;13.27;2.63;;;;;;;24.07;81.01;101525.00;10479966;28;20064;-74
2023/08/12 15:26:04;;;;;;;3.42;2.42;;;;;;;23.90;86.47;101519.69;10498349;28;20055;-74
2023/08/12 15:31:05;;;;;;;15.38;3.95;;;;;;;23.96;81.37;101521.34;10498543;28;20068;-75
2023/08/12 15:36:05;;;;;;;6.28;3.38;;;;;;;23.80;84.00;101522.41;10497409;28;20055;-74
2023/08/12 15:41:12;;;;;;;4.25;2.42;;;;;;;23.84;85.18;101524.38;10497872;28;20064;-74
2023/08/12 15:46:13;;;;;;;6.07;3.88;;;;;;;23.57;93.37;101518.97;10497120;28;20565;-74
2023/08/12 15:51:13;;;;;;;23.80;3.38;;;;;;;23.58;100.00;101525.31;10497037;28;20067;-75
2023/08/12 15:56:14;;;;;;;6.32;2.78;;;;;;;23.54;98.14;101518.69;10495475;28;20051;-75
2023/08/12 16:01:15;;;;;;;8.07;3.65;;;;;;;23.44;97.32;101525.00;10497336;28;20039;-74
2023/08/12 16:06:15;;;;;;;8.35;3.80;;;;;;;22.84;98.04;101526.22;10496194;28;20085;-74
2023/08/12 16:11:16;;;;;;;8.68;3.08;;;;;;;22.48;94.18;101512.97;10496859;28;20045;-74
2023/08/12 16:16:17;;;;;;;6.32;3.03;;;;;;;22.39;100.00;101524.75;10496125;28;20345;-74
2023/08/12 16:21:18;;;;;;;5.20;3.10;;;;;;;22.19;100.00;101511.59;10496606;28;20060;-74
2023/08/12 16:26:18;;;;;;;14.27;5.20;;;;;;;22.24;100.00;101525.44;10496499;28;20042;-74
2023/08/12 16:31:19;;;;;;;10.82;3.25;;;;;;;22.14;97.66;101517.84;10496487;28;20120;-74
2023/08/12 16:36:20;;;;;;;7.03;3.75;;;;;;;21.87;96.59;101528.84;10496148;28;20481;-74
2023/08/12 16:41:20;;;;;;;7.13;2.90;;;;;;;21.52;97.16;101504.44;10494508;28;20031;-74
2023/08/12 16:46:22;;;;;;;9.05;3.33;;;;;;;21.47;97.69;101507.94;10500131;28;20036;-74
2023/08/12 16:51:23;;;;;;;12.85;3.67;;;;;;;21.39;100.00;101510.34;10519266;28;20051;-74
2023/08/12 16:56:23;;;;;;;5.18;3.53;;;;;;;21.37;100.00;101510.56;10485751;28;20039;-74
2023/08/12 17:01:24;;;;;;;12.48;3.95;;;;;;;21.18;100.00;101521.03;10503703;28;20028;-74
2023/08/12 17:06:24;;;;;;;12.30;4.32;;;;;;;21.05;100.00;101519.47;10501534;28;20089;-74
2023/08/12 17:11:25;;;;;;;12.02;4.13;;;;;;;21.05;100.00;101516.69;10503755;28;20040;-74
2023/08/12 17:16:25;;;;;;;3.40;2.63;;;;;;;21.06;100.00;101501.88;10485080;28;20041;-74
2023/08/12 17:21:26;;;;;;;4.38;2.80;;;;;;;21.00;100.00;101510.31;10501323;28;20456;-74
2023/08/12 17:26:26;;;;;;;5.28;3.55;;;;;;;20.88;100.00;101516.72;10502217;28;20040;-74
2023/08/12 17:31:27;;;;;;;6.70;3.28;;;;;;;20.60;98.24;101503.06;10484224;28;20437;-74
2023/08/12 17:36:27;;;;;;;5.30;3.40;;;;;;;20.48;100.00;101514.09;10467745;28;20055;-74
2023/08/12 17:41:28;;;;;;;5.80;2.90;;;;;;;20.50;100.00;101508.38;10501066;28;20033;-74
2023/08/12 17:46:28;;;;;;;13.95;3.78;;;;;;;20.33;96.88;101500.94;10501811;28;20032;-74
2023/08/12 17:51:29;;;;;;;10.52;3.72;;;;;;;20.27;94.96;101501.09;10501600;28;20052;-73
2023/08/12 17:56:29;;;;;;;3.67;2.40;;;;;;;20.26;91.98;101508.50;10466254;28;20048;-74
2023/08/12 18:01:30;;;;;;;12.73;2.97;;;;;;;20.21;96.80;101517.47;10501004;28;20029;-74
2023/08/12 18:06:30;;;;;;;7.40;3.13;;;;;;;20.14;96.54;101516.81;10500922;28;20047;-74
2023/08/12 18:11:31;;;;;;;5.57;3.55;;;;;;;20.22;99.72;101521.06;10499469;28;20094;-74
2023/08/12 18:16:33;;;;;;;11.02;2.63;;;;;;;20.31;99.38;101522.34;10500731;28;20409;-74
2023/08/12 18:21:33;;;;;;;10.65;2.72;;;;;;;20.22;99.28;101518.31;10500167;28;20045;-74
2023/08/12 18:26:33;;;;;;;11.07;4.47;;;;;;;20.19;100.00;101530.63;10499998;28;20041;-74
2023/08/12 18:31:36;;;;;;;15.95;4.95;;;;;;;19.99;100.00;101527.50;10499922;28;20468;-74
2023/08/12 18:36:36;;;;;;;15.70;5.72;;;;;;;19.91;100.00;101544.38;10498356;28;20058;-74
2023/08/12 18:41:36;;;;;;;18.33;5.97;;;;;;;19.98;100.00;101523.94;10499216;28;20024;-74
2023/08/12 18:46:37;;;;;;;17.77;5.35;;;;;;;19.92;100.00;101541.41;10500272;28;20036;-74
2023/08/12 18:51:37;;;;;;;20.40;5.78;;;;;;;19.72;100.00;101550.06;10503726;28;20430;-74
2023/08/12 18:56:38;;;;;;;21.40;4.05;;;;;;;19.44;100.00;101556.28;10497612;28;20060;-74
2023/08/12 19:01:38;;;;;;;7.88;4.72;;;;;;;19.33;100.00;101559.03;10498605;28;20040;-74
2023/08/12 19:06:39;;;;;;;13.63;3.88;;;;;;;19.18;100.00;101552.13;10479988;28;20064;-74
2023/08/12 19:11:39;;;;;;;5.20;2.67;;;;;;;19.12;100.00;101555.00;10497465;28;20063;-74
2023/08/12 19:16:39;;;;;;;26.83;2.80;;;;;;;19.10;100.00;101547.00;10498047;28;20051;-74
2023/08/12 19:21:40;;;;;;;13.90;3.50;;;;;;;18.95;100.00;101552.09;10496621;28;20119;-74
2023/08/12 19:26:40;;;;;;;4.32;3.42;;;;;;;18.93;100.00;101555.09;10497795;28;20063;-74
2023/08/12 19:31:40;;;;;;;10.65;3.38;;;;;;;18.87;100.00;101556.03;10496240;28;20032;-74
2023/08/12 19:36:41;;;;;;;7.15;3.92;;;;;;;18.78;100.00;101557.47;10498103;28;20040;-74
2023/08/12 19:41:41;;;;;;;11.18;2.65;;;;;;;18.74;100.00;101568.06;10497874;28;20041;-74
2023/08/12 19:46:42;;;;;;;6.75;2.80;;;;;;;18.78;100.00;101563.78;10497017;28;20126;-74
2023/08/12 19:51:42;;;;;;;13.13;2.88;;;;;;;18.80;100.00;101575.38;10495302;28;20076;-74
2023/08/12 19:56:42;;;;;;;5.35;2.20;;;;;;;18.84;100.00;101575.72;10498630;28;20048;-74
2023/08/12 20:01:43;;;;;;;16.02;3.75;;;;;;;18.80;100.00;101577.28;10497008;28;20085;-74
2023/08/12 20:06:43;;;;;;;17.58;4.18;;;;;;;18.72;100.00;101580.31;10498010;28;20032;-74
2023/08/12 20:11:44;;;;;;;7.13;3.60;;;;;;;18.59;100.00;101576.72;10498421;28;20037;-74
2023/08/12 20:16:44;;;;;;;19.67;5.35;;;;;;;18.57;100.00;101567.91;10497840;28;20040;-74
2023/08/12 20:21:44;;;;;;;6.88;3.58;;;;;;;18.53;100.00;101568.59;10502464;28;20036;-74
2023/08/12 20:26:45;;;;;;;12.18;2.72;;;;;;;18.50;100.00;101555.34;10505780;28;20366;-74
2023/08/12 20:31:46;;;;;;;11.80;4.40;;;;;;;18.47;100.00;101564.84;10504983;28;20040;-74
2023/08/12 20:36:46;;;;;;;8.02;3.03;;;;;;;18.44;100.00;101556.28;10504726;28;20032;-74
2023/08/12 20:41:47;;;;;;;19.25;5.30;;;;;;;18.43;100.00;101562.84;10504114;28;20479;-74
2023/08/12 20:46:47;;;;;;;11.30;3.55;;;;;;;18.38;100.00;101570.91;10503110;28;20029;-74
2023/08/12 20:51:47;;;;;;;9.02;2.88;;;;;;;18.30;100.00;101570.19;10504140;28;20072;-74
2023/08/12 20:56:48;;;;;;;11.32;3.75;;;;;;;18.23;100.00;101569.44;10520298;28;20029;-74
2023/08/12 21:01:48;;;;;;;12.18;3.95;;;;;;;18.25;100.00;101569.19;10502032;28;20112;-74
2023/08/12 21:06:49;;;;;;;12.18;3.65;;;;;;;18.25;100.00;101566.44;10503700;28;20033;-74
2023/08/12 21:11:51;;;;;;;6.90;4.13;;;;;;;18.22;100.00;101570.53;10503504;28;20392;-74
2023/08/12 21:16:51;;;;;;;15.90;3.60;;;;;;;18.21;100.00;101570.75;10502833;28;20047;-74
2023/08/12 21:21:51;;;;;;;5.13;3.38;;;;;;;18.23;100.00;101563.97;10501509;28;20059;-74
2023/08/12 21:26:53;;;;;;;19.60;5.90;;;;;;;18.23;100.00;101568.59;10502649;28;20037;-74
2023/08/12 21:31:53;;;;;;;6.80;3.08;;;;;;;18.17;100.00;101567.63;10501965;28;20040;-75
2023/08/12 21:36:54;;;;;;;9.65;3.80;;;;;;;18.16;100.00;101565.97;10502449;28;20076;-75
2023/08/12 21:41:54;;;;;;;7.68;4.07;;;;;;;18.17;100.00;101566.78;10503756;28;20036;-74
2023/08/12 21:46:54;;;;;;;18.00;4.22;;;;;;;18.17;100.00;101566.78;10502160;28;20476;-74
2023/08/12 21:51:55;;;;;;;23.63;4.50;;;;;;;18.15;100.00;101575.22;10499956;28;20052;-75
2023/08/12 21:56:55;;;;;;;3.58;2.72;;;;;;;18.11;100.00;101583.09;10500061;28;20036;-75
2023/08/12 22:01:56;;;;;;;11.05;3.58;;;;;;;18.07;100.00;101583.78;10502080;28;20418;-75
2023/08/12 22:06:56;;;;;;;9.50;3.58;;;;;;;18.03;100.00;101583.41;10500898;28;20036;-75
2023/08/12 22:11:57;;;;;;;10.85;3.35;;;;;;;17.93;100.00;101590.50;10498538;28;20575;-75
2023/08/12 22:16:58;;;;;;;9.57;3.30;;;;;;;17.80;100.00;101586.00;10500413;28;20029;-75
2023/08/12 22:22:01;;;;;;;11.85;3.50;;;;;;;17.78;100.00;101588.16;10499645;28;20417;-75
2023/08/12 22:27:01;;;;;;;14.85;3.67;;;;;;;17.76;100.00;101593.81;10498400;28;20036;-75
2023/08/12 22:32:02;;;;;;;11.07;3.55;;;;;;;17.82;100.00;101581.16;10500358;28;20033;-75
2023/08/12 22:37:02;;;;;;;7.90;2.88;;;;;;;17.84;100.00;101577.13;10499384;28;20123;-75
2023/08/12 22:42:03;;;;;;;17.95;4.47;;;;;;;17.75;100.00;101580.38;10498273;28;20033;-75
2023/08/12 22:47:04;;;;;;;12.27;4.90;;;;;;;17.75;100.00;101581.19;10499208;28;20448;-75